Time;durP1;ratioP1;P1;durP2;ratioP2;P2;SDS_P1;SDS_P2;PMS_P1;PMS_P2;Temp;Humidity;BMP_temperature;BMP_pressure;BME280_temperature;BME280_humidity;BME280_pressure;Samples;Min_cycle;Max_cycle;Signal;HPM_P1;HPM_P2
2023/05/18 00:18:22;;;;;;;;;;;;;;;10.86;51.20;97920.09;5961067;22;4143164;-82
2023/05/18 00:20:49;;;;;;;5.40;2.10;;;;;;;10.53;51.70;97900.63;6098145;23;19912;-82
2023/05/18 00:23:15;;;;;;;4.57;2.17;;;;;;;10.58;51.61;97907.75;6073094;23;20427;-85
2023/05/18 00:25:41;;;;;;;8.93;2.40;;;;;;;10.57;51.61;97901.72;6109635;23;20033;-84
2023/05/18 00:28:06;;;;;;;5.68;1.95;;;;;;;10.44;51.94;97904.56;6096754;23;20005;-83
2023/05/18 00:30:32;;;;;;;5.90;2.60;;;;;;;10.27;52.43;97894.78;6071424;23;20060;-84
2023/05/18 00:32:57;;;;;;;5.20;2.22;;;;;;;10.34;52.73;97899.13;6105661;23;20112;-83
2023/05/18 00:35:22;;;;;;;8.05;2.40;;;;;;;10.17;52.99;97902.34;6120747;23;20002;-83
2023/05/18 00:37:49;;;;;;;3.83;2.13;;;;;;;10.38;52.35;97895.06;6130502;23;20060;-81
2023/05/18 00:40:15;;;;;;;4.90;2.40;;;;;;;10.30;52.45;97898.75;6106580;23;20088;-82
2023/05/18 00:42:40;;;;;;;7.95;2.10;;;;;;;10.12;52.81;97897.03;6097297;23;20307;-83
2023/05/18 00:45:06;;;;;;;4.90;2.17;;;;;;;10.05;53.17;97899.72;6105790;23;20419;-80
2023/05/18 00:47:32;;;;;;;6.40;2.50;;;;;;;10.08;52.56;97901.09;6073177;23;20009;-84
2023/05/18 00:49:57;;;;;;;5.72;2.88;;;;;;;9.79;53.55;97900.88;6119885;23;20016;-83
2023/05/18 00:52:23;;;;;;;4.97;1.80;;;;;;;9.57;54.33;97890.97;6106179;23;20069;-83
2023/05/18 00:54:49;;;;;;;5.38;1.98;;;;;;;9.42;54.86;97894.97;6096778;23;20012;-81
2023/05/18 00:57:14;;;;;;;5.90;2.20;;;;;;;9.88;53.64;97889.16;6069973;23;20129;-82
2023/05/18 00:59:46;;;;;;;4.60;1.95;;;;;;;9.94;53.60;97890.88;6072462;23;20215;-82
2023/05/18 01:02:13;;;;;;;5.15;2.15;;;;;;;9.54;54.46;97888.81;6095094;23;20005;-81
2023/05/18 01:04:40;;;;;;;4.88;2.47;;;;;;;9.31;54.76;97880.91;6095067;23;20336;-82
2023/05/18 01:07:06;;;;;;;3.65;2.17;;;;;;;9.19;55.33;97886.03;6065888;23;20088;-83
2023/05/18 01:09:32;;;;;;;5.45;2.30;;;;;;;9.27;55.42;97888.34;6100518;23;20077;-84
2023/05/18 01:12:28;;;;;;;7.53;2.85;;;;;;;9.55;55.09;97885.19;6066180;23;20334;-85
2023/05/18 01:15:13;;;;;;;4.38;2.08;;;;;;;9.10;55.77;97879.53;6099987;23;20018;-85
2023/05/18 01:17:54;;;;;;;5.28;2.40;;;;;;;9.65;54.41;97883.88;6089304;23;20046;-84
2023/05/18 01:20:37;;;;;;;5.82;2.53;;;;;;;9.67;54.53;97893.03;6086858;23;20017;-84
2023/05/18 01:23:34;;;;;;;7.15;3.22;;;;;;;9.67;54.34;97887.84;6084663;23;20010;-84
2023/05/18 01:26:02;;;;;;;4.95;2.17;;;;;;;9.56;54.49;97885.97;6118071;23;20010;-86
2023/05/18 01:28:29;;;;;;;5.47;2.45;;;;;;;9.53;54.64;97887.22;6084690;23;20013;-87
2023/05/18 01:30:55;;;;;;;7.57;2.70;;;;;;;9.44;54.84;97883.34;6119566;23;20006;-83
2023/05/18 01:33:21;;;;;;;5.07;2.42;;;;;;;9.33;54.97;97877.06;6118351;23;20006;-83
2023/05/18 01:35:49;;;;;;;7.25;3.00;;;;;;;9.30;55.38;97882.69;6087226;23;20009;-83
2023/05/18 01:38:25;;;;;;;4.63;2.65;;;;;;;9.45;55.37;97890.13;6061100;23;20555;-83
2023/05/18 01:41:09;;;;;;;4.80;2.38;;;;;;;9.47;55.08;97885.50;6061376;23;20006;-84
2023/05/18 01:43:36;;;;;;;7.88;2.28;;;;;;;9.33;55.21;97882.25;6085449;23;20523;-83
2023/05/18 01:46:08;;;;;;;4.40;2.60;;;;;;;9.27;55.22;97874.53;6084116;23;20055;-81
2023/05/18 01:48:37;;;;;;;5.20;2.25;;;;;;;9.19;55.59;97876.44;6119947;23;20096;-85
2023/05/18 01:51:03;;;;;;;4.80;2.80;;;;;;;9.22;55.62;97880.41;6061099;23;20009;-81
2023/05/18 01:53:42;;;;;;;8.02;3.55;;;;;;;9.30;55.61;97879.31;6119413;23;20013;-82
2023/05/18 01:56:09;;;;;;;6.88;2.88;;;;;;;9.18;55.89;97882.66;6084219;23;20112;-82
2023/05/18 01:58:36;;;;;;;7.90;2.55;;;;;;;9.22;55.68;97884.78;6061636;23;20101;-84
2023/05/18 02:01:01;;;;;;;6.25;2.88;;;;;;;8.99;55.65;97888.84;6094151;23;20013;-82
2023/05/18 02:03:27;;;;;;;5.13;2.95;;;;;;;9.06;55.75;97881.75;6120795;23;20062;-84
2023/05/18 02:05:52;;;;;;;5.20;3.08;;;;;;;8.95;56.13;97879.91;6084757;23;20053;-82
2023/05/18 02:08:17;;;;;;;7.32;2.85;;;;;;;9.09;56.30;97873.53;6085537;23;20005;-83
2023/05/18 02:10:43;;;;;;;6.95;2.85;;;;;;;9.03;56.09;97871.84;6095632;23;20006;-83
2023/05/18 02:13:08;;;;;;;7.60;2.75;;;;;;;9.11;56.00;97874.13;6084027;23;20006;-83
2023/05/18 02:15:34;;;;;;;6.22;2.78;;;;;;;9.10;55.86;97871.72;6059184;23;20333;-82
2023/05/18 02:17:59;;;;;;;6.25;3.20;;;;;;;9.06;56.20;97870.59;6083478;23;20549;-85
2023/05/18 02:20:24;;;;;;;6.35;2.28;;;;;;;8.99;56.21;97870.66;6062438;23;20391;-80
2023/05/18 02:22:50;;;;;;;7.18;2.67;;;;;;;8.89;56.24;97867.78;6036955;23;20033;-82
2023/05/18 02:25:15;;;;;;;3.40;2.45;;;;;;;8.98;56.03;97869.09;6062322;23;20009;-82
2023/05/18 02:27:42;;;;;;;7.90;3.35;;;;;;;8.94;56.43;97868.69;6094041;23;20049;-81
2023/05/18 02:30:08;;;;;;;7.70;2.92;;;;;;;8.86;56.73;97868.19;6119188;23;20040;-83
2023/05/18 02:32:37;;;;;;;9.25;3.25;;;;;;;8.81;56.70;97869.66;6086145;23;20471;-81
2023/05/18 02:35:05;;;;;;;4.28;2.58;;;;;;;8.86;56.63;97865.59;6061471;23;20021;-82
2023/05/18 02:37:33;;;;;;;6.68;2.70;;;;;;;8.78;56.57;97872.66;6096592;23;20429;-84
2023/05/18 02:39:59;;;;;;;6.32;2.63;;;;;;;8.72;56.90;97870.94;6060466;23;20051;-82
2023/05/18 02:42:25;;;;;;;4.05;2.60;;;;;;;8.75;56.66;97872.31;6063512;23;20060;-80
2023/05/18 02:44:50;;;;;;;7.95;3.15;;;;;;;8.83;56.84;97863.47;6095200;23;20287;-83
2023/05/18 02:47:15;;;;;;;8.50;2.88;;;;;;;8.89;56.27;97862.56;6094344;23;20081;-81
2023/05/18 02:49:41;;;;;;;5.68;2.97;;;;;;;8.79;56.54;97863.06;6060429;23;20129;-83
2023/05/18 02:52:06;;;;;;;6.45;3.25;;;;;;;8.90;56.56;97871.97;6061603;23;20006;-82
2023/05/18 02:54:31;;;;;;;7.05;2.67;;;;;;;8.85;56.15;97871.81;6060845;23;20010;-82
2023/05/18 02:56:57;;;;;;;6.13;3.08;;;;;;;8.66;56.94;97876.19;6060723;23;20236;-84
2023/05/18 02:59:23;;;;;;;9.40;2.63;;;;;;;8.67;57.18;97869.97;6093240;23;20275;-83
2023/05/18 03:01:48;;;;;;;7.00;3.00;;;;;;;8.66;57.05;97866.59;6084524;23;20037;-83
2023/05/18 03:04:15;;;;;;;8.43;2.65;;;;;;;8.74;57.06;97873.31;6093029;23;19998;-83
2023/05/18 03:06:41;;;;;;;6.43;2.25;;;;;;;8.67;56.97;97876.00;6059495;23;20382;-84
2023/05/18 03:09:06;;;;;;;3.95;2.42;;;;;;;8.60;57.31;97867.44;6083520;23;20145;-83
2023/05/18 03:11:32;;;;;;;8.30;2.92;;;;;;;8.59;57.73;97871.84;6092514;23;20315;-82
2023/05/18 03:13:57;;;;;;;5.18;2.70;;;;;;;8.66;57.05;97871.78;6093575;23;20006;-81
2023/05/18 03:16:27;;;;;;;5.82;2.80;;;;;;;8.65;57.48;97872.00;6058751;23;20089;-81
2023/05/18 03:18:53;;;;;;;7.55;3.00;;;;;;;8.49;57.41;97868.94;6060784;23;20029;-80
2023/05/18 03:21:20;;;;;;;6.78;2.60;;;;;;;8.52;57.81;97860.75;6082571;23;20006;-78
2023/05/18 03:23:46;;;;;;;6.53;2.72;;;;;;;8.54;57.97;97868.31;6092997;23;20010;-79
2023/05/18 03:26:11;;;;;;;9.18;3.33;;;;;;;8.55;57.49;97865.50;6083309;23;20367;-79
2023/05/18 03:28:38;;;;;;;11.65;3.20;;;;;;;8.46;57.98;97860.81;6059080;23;20208;-79
2023/05/18 03:31:03;;;;;;;6.80;3.17;;;;;;;8.54;57.72;97868.31;6059496;23;20360;-79
2023/05/18 03:33:29;;;;;;;8.73;3.47;;;;;;;8.38;57.97;97859.22;6116759;23;20005;-79
2023/05/18 03:35:54;;;;;;;5.35;2.90;;;;;;;8.35;58.10;97860.47;6059074;23;20037;-79
2023/05/18 03:38:20;;;;;;;6.80;2.90;;;;;;;8.34;57.96;97869.25;6117224;23;20125;-81
2023/05/18 03:40:45;;;;;;;6.82;2.60;;;;;;;8.27;57.80;97863.31;6083786;23;20490;-80
2023/05/18 03:43:10;;;;;;;6.15;3.08;;;;;;;8.22;58.52;97863.16;6058509;23;20313;-80
2023/05/18 03:45:36;;;;;;;11.07;3.10;;;;;;;8.24;58.14;97871.50;6117586;23;20395;-80
2023/05/18 03:48:01;;;;;;;6.88;3.35;;;;;;;8.21;58.44;97866.78;6083664;23;20080;-81
2023/05/18 03:50:28;;;;;;;6.38;2.92;;;;;;;8.11;58.91;97864.63;6091894;23;20013;-80
2023/05/18 03:52:54;;;;;;;9.32;3.90;;;;;;;8.09;58.70;97877.03;6059324;23;20148;-81
2023/05/18 03:55:20;;;;;;;7.05;2.67;;;;;;;8.01;59.16;97870.28;6059312;23;20309;-81
2023/05/18 03:57:46;;;;;;;6.10;3.00;;;;;;;7.97;59.07;97882.09;6059524;23;20217;-80
2023/05/18 04:00:12;;;;;;;5.72;3.08;;;;;;;7.83;59.12;97880.56;6081984;23;20014;-81
2023/05/18 04:02:38;;;;;;;6.07;3.17;;;;;;;8.00;59.12;97886.06;6058335;23;20671;-81
2023/05/18 04:05:06;;;;;;;8.50;3.38;;;;;;;7.96;59.35;97883.09;6093529;23;20013;-81
2023/05/18 04:07:32;;;;;;;7.45;3.50;;;;;;;7.97;58.99;97889.06;6082831;23;20308;-81
2023/05/18 04:09:57;;;;;;;5.60;3.00;;;;;;;7.97;59.30;97884.69;6083068;23;20010;-81
2023/05/18 04:12:23;;;;;;;5.75;2.65;;;;;;;7.99;58.95;97884.47;6058381;23;20052;-80
2023/05/18 04:14:48;;;;;;;7.55;3.60;;;;;;;8.02;59.09;97882.25;6082811;23;20006;-81
2023/05/18 04:17:20;;;;;;;6.57;3.10;;;;;;;8.00;59.25;97884.28;6033705;23;20025;-81
2023/05/18 04:19:46;;;;;;;7.03;2.45;;;;;;;8.03;59.68;97889.03;6060034;23;20448;-80
2023/05/18 04:22:12;;;;;;;7.30;3.58;;;;;;;7.96;59.57;97879.72;6115953;23;20013;-81
2023/05/18 04:24:40;;;;;;;4.93;2.90;;;;;;;8.07;59.19;97890.22;6118913;23;20003;-81
2023/05/18 04:27:05;;;;;;;6.55;3.40;;;;;;;8.14;58.84;97894.53;6080533;23;20459;-80
2023/05/18 04:29:31;;;;;;;7.03;3.38;;;;;;;8.09;59.37;97896.97;6059517;23;20006;-81
2023/05/18 04:31:59;;;;;;;7.30;2.92;;;;;;;8.21;58.74;97885.72;6115951;23;20021;-78
2023/05/18 04:34:29;;;;;;;6.70;3.10;;;;;;;8.34;59.17;97890.00;6058324;23;20013;-80
2023/05/18 04:36:57;;;;;;;9.00;2.72;;;;;;;8.39;58.77;97897.94;6082536;23;20019;-80
2023/05/18 04:39:24;;;;;;;7.15;3.13;;;;;;;8.46;58.75;97899.72;6058787;23;20476;-80
2023/05/18 04:41:56;;;;;;;7.00;3.50;;;;;;;8.52;58.64;97904.09;6084999;23;20010;-79
2023/05/18 04:44:24;;;;;;;10.05;4.43;;;;;;;8.49;57.99;97889.72;6092453;23;20397;-80
2023/05/18 04:46:51;;;;;;;4.70;3.40;;;;;;;8.56;58.32;97897.44;6117321;23;20021;-80
2023/05/18 04:49:20;;;;;;;7.38;3.30;;;;;;;8.61;58.16;97906.19;6093863;23;20020;-80
2023/05/18 04:51:48;;;;;;;9.60;3.30;;;;;;;8.70;57.88;97904.09;6060882;23;20113;-79
2023/05/18 04:54:14;;;;;;;6.88;3.38;;;;;;;8.70;57.52;97906.69;6082945;23;20003;-81
2023/05/18 04:56:40;;;;;;;4.57;3.10;;;;;;;8.88;57.17;97899.97;6094380;23;20045;-81
2023/05/18 04:59:08;;;;;;;5.35;2.78;;;;;;;8.91;56.93;97915.91;6093081;23;20668;-80
2023/05/18 05:01:33;;;;;;;5.18;3.40;;;;;;;8.76;57.59;97908.44;6059400;23;20040;-80
2023/05/18 05:03:59;;;;;;;8.73;3.08;;;;;;;9.02;57.09;97916.19;6069171;23;20029;-81
2023/05/18 05:06:24;;;;;;;6.60;2.78;;;;;;;9.02;56.78;97911.78;6060409;23;20014;-81
2023/05/18 05:08:50;;;;;;;5.55;3.13;;;;;;;8.95;56.87;97916.25;6069972;23;20080;-77
2023/05/18 05:11:16;;;;;;;5.90;3.00;;;;;;;9.21;56.56;97917.00;6115800;23;20033;-80
2023/05/18 05:13:41;;;;;;;5.28;2.70;;;;;;;9.19;56.04;97909.41;6116958;23;20049;-80
2023/05/18 05:16:06;;;;;;;5.15;2.33;;;;;;;9.27;56.42;97914.34;6091270;23;20231;-81
2023/05/18 05:18:32;;;;;;;4.35;2.53;;;;;;;9.44;56.01;97904.16;6061157;23;20057;-81
2023/05/18 05:20:58;;;;;;;6.80;2.30;;;;;;;9.46;55.69;97909.09;6116610;23;20014;-77
2023/05/18 05:23:23;;;;;;;7.05;3.15;;;;;;;9.36;55.95;97910.41;6058798;23;20034;-77
2023/05/18 05:25:49;;;;;;;5.22;2.63;;;;;;;9.37;55.92;97911.19;6116474;23;20186;-80
2023/05/18 05:28:14;;;;;;;5.88;3.10;;;;;;;9.61;55.45;97904.31;6117002;23;20090;-81
2023/05/18 05:30:40;;;;;;;5.88;2.30;;;;;;;9.52;55.26;97909.03;6093291;23;20357;-82
2023/05/18 05:33:05;;;;;;;6.63;3.13;;;;;;;9.59;55.23;97910.75;6117352;23;20065;-78
2023/05/18 05:35:31;;;;;;;10.60;3.75;;;;;;;9.63;55.53;97911.88;6083093;23;20010;-76
2023/05/18 05:37:56;;;;;;;6.88;3.42;;;;;;;9.37;55.99;97911.19;6058501;23;20113;-75
2023/05/18 05:40:21;;;;;;;6.95;2.92;;;;;;;9.41;56.04;97914.16;6082410;23;20014;-79
2023/05/18 05:42:47;;;;;;;7.30;2.90;;;;;;;9.48;55.07;97909.69;6057750;23;20010;-77
2023/05/18 05:45:12;;;;;;;7.35;2.92;;;;;;;9.87;54.74;97912.78;6118837;23;20010;-77
2023/05/18 05:47:38;;;;;;;6.78;2.72;;;;;;;10.05;54.19;97912.72;6058387;23;20010;-78
2023/05/18 05:50:04;;;;;;;5.82;2.40;;;;;;;10.07;54.28;97913.28;6058956;23;20011;-75
2023/05/18 05:52:30;;;;;;;7.00;3.05;;;;;;;10.26;53.84;97914.03;6116437;23;20080;-77
2023/05/18 05:54:56;;;;;;;6.25;2.55;;;;;;;10.53;52.96;97915.44;6082152;23;20778;-76
2023/05/18 05:57:21;;;;;;;6.25;3.08;;;;;;;10.19;53.25;97921.13;6092001;23;20006;-74
2023/05/18 05:59:46;;;;;;;6.95;3.00;;;;;;;10.42;53.58;97919.63;6058811;23;20005;-75
2023/05/18 06:02:12;;;;;;;4.03;2.70;;;;;;;10.48;53.46;97914.28;6093655;23;20456;-75
2023/05/18 06:04:37;;;;;;;5.72;2.78;;;;;;;10.96;53.72;97914.31;6117552;23;20053;-77
2023/05/18 06:07:03;;;;;;;5.47;2.63;;;;;;;10.88;52.27;97912.84;6084102;23;20116;-78
2023/05/18 06:09:28;;;;;;;4.90;2.72;;;;;;;11.18;52.44;97927.53;6093184;23;20014;-76
2023/05/18 06:11:54;;;;;;;4.47;2.65;;;;;;;11.25;51.52;97933.41;6119766;23;20009;-79
2023/05/18 06:14:20;;;;;;;7.80;3.35;;;;;;;11.26;51.08;97919.38;6069183;23;20034;-79
2023/05/18 06:16:45;;;;;;;5.18;2.47;;;;;;;11.29;50.86;97923.31;6081574;23;20534;-76
2023/05/18 06:19:11;;;;;;;9.00;4.05;;;;;;;11.65;51.09;97927.41;6120940;23;20064;-78
2023/05/18 06:21:36;;;;;;;4.38;2.22;;;;;;;11.54;50.74;97920.44;6118582;23;20308;-75
2023/05/18 06:24:03;;;;;;;4.68;2.72;;;;;;;11.78;50.27;97926.34;6059640;23;20205;-77
2023/05/18 06:26:29;;;;;;;6.68;2.95;;;;;;;12.02;49.79;97929.69;6092059;23;20033;-78
2023/05/18 06:28:54;;;;;;;3.50;2.63;;;;;;;12.07;49.23;97929.00;6093540;23;20048;-76
2023/05/18 06:31:20;;;;;;;4.85;2.28;;;;;;;11.91;49.02;97933.13;6034809;23;20459;-76
2023/05/18 06:33:45;;;;;;;7.93;2.53;;;;;;;12.28;49.09;97922.28;6059201;23;20017;-78
2023/05/18 06:36:10;;;;;;;6.85;3.10;;;;;;;12.68;48.22;97944.84;6116971;23;20295;-78
2023/05/18 06:38:36;;;;;;;5.75;2.80;;;;;;;12.76;47.42;97939.22;6092459;23;20025;-79
2023/05/18 06:41:01;;;;;;;4.90;2.50;;;;;;;13.01;47.59;97940.63;6117831;23;20049;-77
2023/05/18 06:43:27;;;;;;;4.40;2.60;;;;;;;13.22;46.91;97947.69;6059074;23;20644;-77
2023/05/18 06:45:53;;;;;;;6.13;2.60;;;;;;;13.30;47.76;97936.81;6060096;23;20196;-79
2023/05/18 06:48:19;;;;;;;3.33;2.42;;;;;;;13.64;45.74;97941.94;6115670;23;20037;-78
2023/05/18 06:50:45;;;;;;;4.57;2.55;;;;;;;13.62;46.00;97948.44;6117803;23;20014;-77
2023/05/18 06:53:10;;;;;;;6.03;2.75;;;;;;;13.56;45.63;97944.22;6117302;23;20020;-78
2023/05/18 06:55:36;;;;;;;6.45;2.17;;;;;;;13.87;46.00;97942.72;6118021;23;20010;-80
2023/05/18 06:58:02;;;;;;;5.03;2.47;;;;;;;14.19;45.15;97932.28;6116876;23;20041;-79
2023/05/18 07:00:27;;;;;;;5.05;1.88;;;;;;;14.48;44.71;97916.28;6093107;23;20041;-79
2023/05/18 07:02:52;;;;;;;4.57;2.30;;;;;;;14.50;44.63;97931.75;6091882;23;20014;-77
2023/05/18 07:05:18;;;;;;;6.68;2.58;;;;;;;14.63;43.82;97936.56;6082424;23;20497;-79
2023/05/18 07:07:45;;;;;;;4.68;2.20;;;;;;;14.78;43.19;97928.81;6093917;23;20094;-79
2023/05/18 07:10:10;;;;;;;4.88;1.98;;;;;;;14.89;42.60;97934.91;6118296;23;20218;-80
2023/05/18 07:12:35;;;;;;;4.35;2.10;;;;;;;15.31;42.14;97936.69;6083799;23;20418;-79
2023/05/18 07:15:01;;;;;;;6.63;2.70;;;;;;;15.47;41.89;97921.00;6117682;23;20006;-80
2023/05/18 07:17:26;;;;;;;4.00;2.20;;;;;;;15.72;42.10;97930.81;6082797;23;20042;-81
2023/05/18 07:19:52;;;;;;;4.63;1.98;;;;;;;15.42;41.21;97923.63;6119730;23;20328;-80
2023/05/18 07:22:17;;;;;;;5.40;3.17;;;;;;;15.43;41.47;97931.22;6091782;23;20363;-80
2023/05/18 07:24:42;;;;;;;6.45;2.47;;;;;;;15.50;41.97;97936.25;6058782;23;20052;-80
2023/05/18 07:27:08;;;;;;;7.65;2.10;;;;;;;15.62;41.74;97926.31;6091789;23;20010;-78
2023/05/18 07:29:33;;;;;;;8.10;2.58;;;;;;;15.45;41.72;97923.88;6093259;23;20018;-77
2023/05/18 07:31:58;;;;;;;6.32;2.45;;;;;;;15.38;41.20;97925.97;6058196;23;20013;-77
2023/05/18 07:34:25;;;;;;;5.78;1.75;;;;;;;15.95;40.74;97913.78;6093690;23;20548;-79
2023/05/18 07:36:51;;;;;;;4.05;2.42;;;;;;;15.99;41.20;97921.94;6116432;23;20509;-80
2023/05/18 07:39:18;;;;;;;3.28;2.00;;;;;;;16.26;41.10;97919.88;6082910;23;20013;-79
2023/05/18 07:41:48;;;;;;;4.47;2.20;;;;;;;15.99;39.99;97916.69;6057740;23;20100;-77
2023/05/18 07:44:14;;;;;;;5.28;2.70;;;;;;;15.77;40.57;97922.19;6082062;23;20006;-76
2023/05/18 07:46:39;;;;;;;3.53;1.92;;;;;;;16.25;41.23;97922.78;6081859;23;20013;-78
2023/05/18 07:49:05;;;;;;;3.55;1.90;;;;;;;16.50;40.04;97929.06;6083660;23;20014;-79
2023/05/18 07:51:31;;;;;;;6.65;2.40;;;;;;;16.78;39.50;97920.63;6082343;23;20006;-79
2023/05/18 07:53:56;;;;;;;7.22;2.33;;;;;;;16.81;39.77;97932.44;6115043;23;20010;-79
2023/05/18 07:56:23;;;;;;;4.10;2.30;;;;;;;16.80;39.01;97923.78;6091746;23;20097;-78
2023/05/18 07:58:48;;;;;;;5.15;2.30;;;;;;;16.55;39.22;97914.06;6033432;23;20097;-82
2023/05/18 08:01:14;;;;;;;4.20;2.20;;;;;;;16.64;40.40;97924.88;6059394;23;20041;-78
2023/05/18 08:03:40;;;;;;;6.53;2.35;;;;;;;17.02;38.88;97915.59;6090693;23;20078;-79
2023/05/18 08:06:05;;;;;;;5.57;2.45;;;;;;;17.41;39.08;97907.03;6081219;23;20014;-80
2023/05/18 08:08:30;;;;;;;5.63;2.15;;;;;;;17.82;38.11;97907.88;6117785;23;20009;-80
2023/05/18 08:10:56;;;;;;;4.60;2.05;;;;;;;17.59;37.26;97907.47;6118023;23;20013;-79
2023/05/18 08:13:23;;;;;;;4.88;2.25;;;;;;;17.46;36.79;97892.28;6116431;23;20021;-80
2023/05/18 08:15:49;;;;;;;5.80;2.20;;;;;;;17.86;37.20;97895.75;6068580;23;20467;-82
2023/05/18 08:18:14;;;;;;;4.55;1.98;;;;;;;17.14;37.72;97911.91;6113191;23;20192;-80
2023/05/18 08:20:39;;;;;;;5.45;2.22;;;;;;;17.42;37.34;97903.34;6083449;23;20476;-81
2023/05/18 08:23:05;;;;;;;4.10;2.08;;;;;;;17.49;36.96;97897.78;6117280;23;20006;-81
2023/05/18 08:25:30;;;;;;;6.28;2.30;;;;;;;17.14;38.00;97909.25;6092715;23;20048;-77
2023/05/18 08:27:55;;;;;;;4.53;2.10;;;;;;;17.01;36.38;97898.22;6062202;23;20013;-78
2023/05/18 08:30:21;;;;;;;6.93;3.22;;;;;;;17.69;36.89;97902.16;6116153;23;20362;-78
2023/05/18 08:32:47;;;;;;;6.57;3.17;;;;;;;18.34;37.62;97895.94;6059265;23;20029;-80
2023/05/18 08:35:12;;;;;;;2.88;1.70;;;;;;;18.36;36.09;97891.16;6117844;23;20017;-78
2023/05/18 08:37:38;;;;;;;5.55;2.58;;;;;;;17.75;36.95;97893.19;6094762;23;20045;-79
2023/05/18 08:43:32;;;;;;;5.70;2.05;;;;;;;18.06;35.98;97882.47;6001905;23;20351;-80
2023/05/18 08:46:05;;;;;;;5.55;2.08;;;;;;;17.60;36.64;97901.94;5998616;23;20175;-80
2023/05/18 08:48:32;;;;;;;3.28;1.80;;;;;;;18.09;35.95;97889.78;6021883;23;20739;-81
2023/05/18 08:50:57;;;;;;;5.00;2.25;;;;;;;17.93;35.16;97897.03;5998432;23;20141;-79
2023/05/18 08:53:24;;;;;;;6.13;2.47;;;;;;;18.52;36.08;97882.06;6020271;23;20500;-79
2023/05/18 08:55:52;;;;;;;4.88;1.65;;;;;;;17.95;35.08;97894.91;6022858;23;20152;-80
2023/05/18 08:58:19;;;;;;;6.10;2.10;;;;;;;18.17;34.23;97888.44;5987905;23;20175;-81
2023/05/18 09:00:44;;;;;;;6.13;2.22;;;;;;;18.31;34.30;97891.22;5989095;23;20213;-80
2023/05/18 09:03:10;;;;;;;4.07;1.95;;;;;;;18.88;34.33;97889.66;5992971;23;20610;-81
2023/05/18 09:05:36;;;;;;;4.80;2.63;;;;;;;18.84;34.48;97882.56;5996322;23;20219;-82
2023/05/18 09:08:02;;;;;;;5.90;2.30;;;;;;;18.62;34.45;97875.88;6021697;23;20183;-80
2023/05/18 09:10:28;;;;;;;3.63;1.90;;;;;;;18.60;34.74;97878.03;5997479;23;20172;-81
2023/05/18 09:12:53;;;;;;;6.07;2.53;;;;;;;18.44;34.61;97880.03;6021640;23;20198;-81
2023/05/18 09:15:20;;;;;;;5.10;2.67;;;;;;;19.13;34.22;97877.22;6018502;23;20264;-79
2023/05/18 09:17:46;;;;;;;5.35;2.28;;;;;;;19.25;35.54;97880.22;5961575;23;20157;-81
2023/05/18 09:20:11;;;;;;;5.25;2.40;;;;;;;19.29;33.84;97888.38;5997530;23;20263;-81
2023/05/18 09:22:40;;;;;;;8.10;2.83;;;;;;;19.26;34.07;97881.00;5984004;23;20685;-78
2023/05/18 09:25:09;;;;;;;6.05;3.25;;;;;;;18.76;34.16;97886.56;5995230;23;20084;-80
2023/05/18 09:27:35;;;;;;;7.82;2.40;;;;;;;18.77;34.29;97882.88;5962548;23;20183;-78
2023/05/18 09:30:01;;;;;;;4.97;3.03;;;;;;;18.46;34.82;97877.13;5963717;23;20348;-82
2023/05/18 09:32:28;;;;;;;8.73;2.90;;;;;;;17.93;35.25;97883.84;6023984;23;20191;-80
2023/05/18 09:34:54;;;;;;;4.75;3.40;;;;;;;18.56;35.70;97871.75;6023674;23;20717;-82
2023/05/18 09:37:21;;;;;;;7.15;3.38;;;;;;;18.51;33.97;97877.84;5969800;23;20271;-81
2023/05/18 09:39:59;;;;;;;4.00;2.50;;;;;;;18.98;35.09;97878.16;5997391;23;20639;-82
2023/05/18 09:42:38;;;;;;;5.63;2.70;;;;;;;18.89;33.29;97870.09;5973719;23;20571;-81
2023/05/18 09:45:16;;;;;;;5.32;2.92;;;;;;;18.78;34.30;97878.38;6031286;23;20236;-81
2023/05/18 09:47:42;;;;;;;5.53;2.95;;;;;;;19.03;35.02;97882.63;6005207;23;20227;-79
2023/05/18 09:50:10;;;;;;;6.72;2.72;;;;;;;18.70;35.14;97875.28;6032272;23;20254;-82
2023/05/18 09:52:42;;;;;;;6.30;2.80;;;;;;;19.41;35.17;97874.75;5974062;23;20718;-81
2023/05/18 09:55:09;;;;;;;5.43;2.45;;;;;;;18.40;35.40;97873.72;5975137;23;20148;-83
2023/05/18 09:57:45;;;;;;;6.88;2.95;;;;;;;19.12;34.62;97883.56;6008484;23;20171;-78
2023/05/18 10:00:13;;;;;;;7.82;3.10;;;;;;;19.40;34.20;97878.47;5997130;23;20183;-80
2023/05/18 10:02:47;;;;;;;4.90;2.60;;;;;;;18.77;34.48;97876.81;6007606;23;20250;-80
2023/05/18 10:05:26;;;;;;;4.57;2.57;;;;;;;18.70;34.71;97875.28;5974836;23;20076;-79
2023/05/18 10:07:53;;;;;;;7.68;3.03;;;;;;;19.36;34.71;97869.53;5996310;23;20603;-80
2023/05/18 10:10:21;;;;;;;5.95;2.90;;;;;;;18.85;34.22;97866.47;6033137;23;20600;-81
2023/05/18 10:12:47;;;;;;;5.43;2.92;;;;;;;18.57;36.13;97862.75;5997493;23;20203;-80
2023/05/18 10:15:14;;;;;;;5.25;2.75;;;;;;;17.89;36.13;97877.56;5996763;23;20148;-80
2023/05/18 10:17:41;;;;;;;4.82;3.15;;;;;;;17.34;37.79;97869.69;6001108;23;20187;-80
2023/05/18 10:20:08;;;;;;;5.30;2.92;;;;;;;18.04;37.61;97874.00;5970832;23;20199;-79
2023/05/18 10:22:34;;;;;;;4.68;3.15;;;;;;;18.48;37.09;97870.47;5950415;23;20359;-81
2023/05/18 10:25:02;;;;;;;7.95;3.08;;;;;;;19.25;36.42;97872.31;5974845;23;20584;-82
2023/05/18 10:27:28;;;;;;;5.60;3.08;;;;;;;19.52;34.31;97870.09;5999015;23;20168;-80
2023/05/18 10:29:57;;;;;;;5.53;3.05;;;;;;;19.51;33.95;97856.13;5997807;23;20152;-80
2023/05/18 10:32:24;;;;;;;8.95;3.17;;;;;;;18.82;34.79;97866.19;5973939;23;20183;-78
2023/05/18 10:34:52;;;;;;;6.32;2.75;;;;;;;18.23;35.90;97868.88;5976090;23;20520;-79
2023/05/18 10:37:21;;;;;;;6.72;3.08;;;;;;;18.38;36.97;97857.38;6030386;23;20215;-80
2023/05/18 10:39:47;;;;;;;5.30;3.05;;;;;;;18.83;37.08;97867.78;6031699;23;20178;-82
2023/05/18 10:42:12;;;;;;;5.90;3.08;;;;;;;19.01;35.66;97861.00;5976167;23;20565;-78
2023/05/18 10:44:38;;;;;;;7.00;3.00;;;;;;;19.74;36.01;97867.72;5997362;23;20204;-79
2023/05/18 10:47:04;;;;;;;4.07;2.83;;;;;;;19.86;33.99;97853.28;5999039;23;20167;-81
2023/05/18 10:49:31;;;;;;;4.40;2.60;;;;;;;20.67;32.87;97850.38;5996582;23;20592;-82
2023/05/18 10:51:57;;;;;;;4.65;2.90;;;;;;;20.52;33.42;97857.47;5974010;23;20144;-80
2023/05/18 10:54:22;;;;;;;4.88;3.25;;;;;;;20.36;33.06;97851.66;5997951;23;20235;-81
2023/05/18 10:56:51;;;;;;;5.15;2.95;;;;;;;20.36;31.72;97858.81;5998001;23;20194;-82
2023/05/18 10:59:17;;;;;;;5.18;3.08;;;;;;;20.47;32.67;97856.78;5996672;23;20198;-82
2023/05/18 11:01:43;;;;;;;6.03;2.75;;;;;;;20.71;32.67;97846.03;5949575;23;20183;-83
2023/05/18 11:04:09;;;;;;;4.38;2.88;;;;;;;20.83;33.20;97851.63;5973968;23;20329;-80
2023/05/18 11:06:35;;;;;;;3.80;3.10;;;;;;;20.50;32.55;97837.69;5999500;23;20079;-82
2023/05/18 11:09:00;;;;;;;4.45;2.55;;;;;;;20.19;34.19;97851.44;5997567;23;20248;-81
2023/05/18 11:11:28;;;;;;;4.88;2.90;;;;;;;19.74;33.93;97853.69;6008070;23;20224;-79
2023/05/18 11:14:00;;;;;;;4.47;2.75;;;;;;;19.18;33.87;97853.41;6009516;23;20576;-80
2023/05/18 11:16:34;;;;;;;6.18;3.03;;;;;;;18.77;34.75;97840.66;6033485;23;20768;-81
2023/05/18 11:19:06;;;;;;;6.05;2.60;;;;;;;18.65;35.34;97846.31;5993790;23;20083;-80
2023/05/18 11:21:35;;;;;;;5.55;2.67;;;;;;;19.40;36.00;97852.06;5973132;23;20614;-79
2023/05/18 11:24:20;;;;;;;6.43;2.63;;;;;;;19.39;34.24;97845.19;5996434;23;20212;-81
2023/05/18 11:26:54;;;;;;;3.92;2.50;;;;;;;19.75;33.20;97847.38;5975557;23;20603;-80
2023/05/18 11:29:39;;;;;;;5.47;2.97;;;;;;;19.50;33.79;97837.91;5974937;23;20219;-79
2023/05/18 11:32:19;;;;;;;;;;;;;;;19.67;34.20;97848.75;5973831;23;20235;-81
2023/05/18 11:34:54;;;;;;;5.93;3.05;;;;;;;19.85;34.63;97839.28;5971904;23;20161;-81
2023/05/18 11:37:38;;;;;;;5.63;2.92;;;;;;;19.26;34.50;97849.31;6033538;23;20258;-80
2023/05/18 11:40:05;;;;;;;5.43;3.03;;;;;;;18.59;35.31;97844.00;6033826;23;20445;-79
2023/05/18 11:42:32;;;;;;;6.90;2.85;;;;;;;18.61;35.74;97842.69;6009116;23;20140;-81
2023/05/18 11:45:05;;;;;;;3.53;2.92;;;;;;;19.05;34.39;97840.88;6030932;23;20291;-83
2023/05/18 11:47:30;;;;;;;7.32;3.20;;;;;;;18.70;34.60;97838.34;6031382;23;20325;-82
2023/05/18 11:49:56;;;;;;;4.90;2.70;;;;;;;18.96;34.56;97829.41;5972186;23;20317;-80
2023/05/18 11:52:23;;;;;;;5.50;2.90;;;;;;;19.42;34.77;97834.06;5973350;23;20144;-81
2023/05/18 11:54:51;;;;;;;5.60;3.08;;;;;;;19.30;34.98;97839.00;5973452;23;20179;-77
2023/05/18 11:57:17;;;;;;;4.78;2.33;;;;;;;19.07;35.24;97828.19;6009822;23;20175;-80